sensor_id;sensor_type;location;lat;lon;timestamp;temperature;humidity
12025;DHT22;6073;53.230;10.444;2024-03-02T00:02:06;8.30;99.90
12025;DHT22;6073;53.230;10.444;2024-03-02T00:04:32;8.30;99.90
12025;DHT22;6073;53.230;10.444;2024-03-02T00:06:57;8.20;99.90
12025;DHT22;6073;53.230;10.444;2024-03-02T00:09:23;8.20;99.90
12025;DHT22;6073;53.230;10.444;2024-03-02T00:11:48;8.10;99.90
12025;DHT22;6073;53.230;10.444;2024-03-02T00:14:14;8.10;99.90
12025;DHT22;6073;53.230;10.444;2024-03-02T00:16:40;8.20;99.90
12025;DHT22;6073;53.230;10.444;2024-03-02T00:19:07;8.20;99.90
12025;DHT22;6073;53.230;10.444;2024-03-02T00:21:34;8.10;99.90
12025;DHT22;6073;53.230;10.444;2024-03-02T00:24:00;8.10;99.90
12025;DHT22;6073;53.230;10.444;2024-03-02T00:26:28;8.10;99.90
12025;DHT22;6073;53.230;10.444;2024-03-02T00:28:55;8.20;99.90
12025;DHT22;6073;53.230;10.444;2024-03-02T00:31:22;8.10;99.90
12025;DHT22;6073;53.230;10.444;2024-03-02T00:33:48;8.10;99.90
12025;DHT22;6073;53.230;10.444;2024-03-02T00:36:25;8.00;99.90
12025;DHT22;6073;53.230;10.444;2024-03-02T00:38:53;8.00;99.90
12025;DHT22;6073;53.230;10.444;2024-03-02T00:41:20;7.90;99.90
12025;DHT22;6073;53.230;10.444;2024-03-02T00:46:22;8.00;99.90
12025;DHT22;6073;53.230;10.444;2024-03-02T00:48:56;8.00;99.90
12025;DHT22;6073;53.230;10.444;2024-03-02T00:51:23;8.00;99.90
12025;DHT22;6073;53.230;10.444;2024-03-02T00:53:50;8.00;99.90
12025;DHT22;6073;53.230;10.444;2024-03-02T00:56:16;8.10;99.90
12025;DHT22;6073;53.230;10.444;2024-03-02T00:58:42;8.00;99.90
12025;DHT22;6073;53.230;10.444;2024-03-02T01:01:08;8.00;99.90
12025;DHT22;6073;53.230;10.444;2024-03-02T01:03:34;7.90;99.90
12025;DHT22;6073;53.230;10.444;2024-03-02T01:05:59;7.80;99.90
12025;DHT22;6073;53.230;10.444;2024-03-02T01:08:25;7.80;99.90
12025;DHT22;6073;53.230;10.444;2024-03-02T01:10:51;7.70;99.90
12025;DHT22;6073;53.230;10.444;2024-03-02T01:13:17;7.70;99.90
12025;DHT22;6073;53.230;10.444;2024-03-02T01:15:42;7.70;99.90
12025;DHT22;6073;53.230;10.444;2024-03-02T01:18:08;7.60;99.90
12025;DHT22;6073;53.230;10.444;2024-03-02T01:20:34;7.60;99.90
12025;DHT22;6073;53.230;10.444;2024-03-02T01:22:59;7.60;99.90
12025;DHT22;6073;53.230;10.444;2024-03-02T01:25:24;7.50;99.90
12025;DHT22;6073;53.230;10.444;2024-03-02T01:27:50;7.40;99.90
12025;DHT22;6073;53.230;10.444;2024-03-02T01:30:16;7.40;99.90
12025;DHT22;6073;53.230;10.444;2024-03-02T01:32:42;7.40;99.90
12025;DHT22;6073;53.230;10.444;2024-03-02T01:35:07;7.40;99.90
12025;DHT22;6073;53.230;10.444;2024-03-02T01:37:33;7.40;99.90
12025;DHT22;6073;53.230;10.444;2024-03-02T01:39:59;7.40;99.90
12025;DHT22;6073;53.230;10.444;2024-03-02T01:42:24;7.50;99.90
12025;DHT22;6073;53.230;10.444;2024-03-02T01:44:50;7.50;99.90
12025;DHT22;6073;53.230;10.444;2024-03-02T01:47:16;7.40;99.90
12025;DHT22;6073;53.230;10.444;2024-03-02T01:49:42;7.40;99.90
12025;DHT22;6073;53.230;10.444;2024-03-02T01:52:07;7.50;99.90
12025;DHT22;6073;53.230;10.444;2024-03-02T01:54:33;7.50;99.90
12025;DHT22;6073;53.230;10.444;2024-03-02T01:56:59;7.40;99.90
12025;DHT22;6073;53.230;10.444;2024-03-02T01:59:25;7.40;99.90
12025;DHT22;6073;53.230;10.444;2024-03-02T02:01:50;7.40;99.90
12025;DHT22;6073;53.230;10.444;2024-03-02T02:04:16;7.40;99.90
12025;DHT22;6073;53.230;10.444;2024-03-02T02:06:44;7.40;99.90
12025;DHT22;6073;53.230;10.444;2024-03-02T02:09:09;7.40;99.90
12025;DHT22;6073;53.230;10.444;2024-03-02T02:11:35;7.40;99.90
12025;DHT22;6073;53.230;10.444;2024-03-02T02:14:00;7.40;99.90
12025;DHT22;6073;53.230;10.444;2024-03-02T02:16:26;7.40;99.90
12025;DHT22;6073;53.230;10.444;2024-03-02T02:18:51;7.40;99.90
12025;DHT22;6073;53.230;10.444;2024-03-02T02:21:17;7.40;99.90
12025;DHT22;6073;53.230;10.444;2024-03-02T02:23:42;7.40;99.90
12025;DHT22;6073;53.230;10.444;2024-03-02T02:26:12;7.40;99.90
12025;DHT22;6073;53.230;10.444;2024-03-02T02:28:37;7.30;99.90
12025;DHT22;6073;53.230;10.444;2024-03-02T02:31:03;7.30;99.90
12025;DHT22;6073;53.230;10.444;2024-03-02T02:33:28;7.30;99.90
12025;DHT22;6073;53.230;10.444;2024-03-02T02:35:54;7.20;99.90
12025;DHT22;6073;53.230;10.444;2024-03-02T02:38:19;7.20;99.90
12025;DHT22;6073;53.230;10.444;2024-03-02T02:40:45;7.30;99.90
12025;DHT22;6073;53.230;10.444;2024-03-02T02:43:11;7.30;99.90
12025;DHT22;6073;53.230;10.444;2024-03-02T02:45:37;7.30;99.90
12025;DHT22;6073;53.230;10.444;2024-03-02T02:48:03;7.40;99.90
12025;DHT22;6073;53.230;10.444;2024-03-02T02:50:28;7.40;99.90
12025;DHT22;6073;53.230;10.444;2024-03-02T02:52:54;7.40;99.90
12025;DHT22;6073;53.230;10.444;2024-03-02T02:55:19;7.40;99.90
12025;DHT22;6073;53.230;10.444;2024-03-02T02:57:45;7.40;99.90
12025;DHT22;6073;53.230;10.444;2024-03-02T03:00:14;7.40;99.90
12025;DHT22;6073;53.230;10.444;2024-03-02T03:02:44;7.40;99.90
12025;DHT22;6073;53.230;10.444;2024-03-02T03:05:11;7.40;99.90
12025;DHT22;6073;53.230;10.444;2024-03-02T03:07:37;7.30;99.90
12025;DHT22;6073;53.230;10.444;2024-03-02T03:10:05;7.40;99.90
12025;DHT22;6073;53.230;10.444;2024-03-02T03:12:32;7.40;99.90
12025;DHT22;6073;53.230;10.444;2024-03-02T03:14:57;7.30;99.90
12025;DHT22;6073;53.230;10.444;2024-03-02T03:17:23;7.30;99.90
12025;DHT22;6073;53.230;10.444;2024-03-02T03:19:49;7.30;99.90
12025;DHT22;6073;53.230;10.444;2024-03-02T03:22:15;7.30;99.90
12025;DHT22;6073;53.230;10.444;2024-03-02T03:24:40;7.40;99.90
12025;DHT22;6073;53.230;10.444;2024-03-02T03:27:06;7.30;99.90
12025;DHT22;6073;53.230;10.444;2024-03-02T03:29:31;7.30;99.90
12025;DHT22;6073;53.230;10.444;2024-03-02T03:31:57;7.40;99.90
12025;DHT22;6073;53.230;10.444;2024-03-02T03:34:22;7.40;99.90
12025;DHT22;6073;53.230;10.444;2024-03-02T03:36:48;7.40;99.90
12025;DHT22;6073;53.230;10.444;2024-03-02T03:39:14;7.40;99.90
12025;DHT22;6073;53.230;10.444;2024-03-02T03:41:40;7.40;99.90
12025;DHT22;6073;53.230;10.444;2024-03-02T03:44:06;7.40;99.90
12025;DHT22;6073;53.230;10.444;2024-03-02T03:46:31;7.40;99.90
12025;DHT22;6073;53.230;10.444;2024-03-02T03:48:57;7.50;99.90
12025;DHT22;6073;53.230;10.444;2024-03-02T03:51:22;7.40;99.90
12025;DHT22;6073;53.230;10.444;2024-03-02T03:53:48;7.40;99.90
12025;DHT22;6073;53.230;10.444;2024-03-02T03:56:14;7.40;99.90
12025;DHT22;6073;53.230;10.444;2024-03-02T03:58:39;7.40;99.90
12025;DHT22;6073;53.230;10.444;2024-03-02T04:01:05;7.40;99.90
12025;DHT22;6073;53.230;10.444;2024-03-02T04:03:30;7.40;99.90
12025;DHT22;6073;53.230;10.444;2024-03-02T04:05:56;7.40;99.90
12025;DHT22;6073;53.230;10.444;2024-03-02T04:08:22;7.40;99.90
12025;DHT22;6073;53.230;10.444;2024-03-02T04:10:47;7.50;99.90
12025;DHT22;6073;53.230;10.444;2024-03-02T04:13:13;7.50;99.90
12025;DHT22;6073;53.230;10.444;2024-03-02T04:15:38;7.50;99.90
12025;DHT22;6073;53.230;10.444;2024-03-02T04:18:06;7.60;99.90
12025;DHT22;6073;53.230;10.444;2024-03-02T04:20:31;7.60;99.90
12025;DHT22;6073;53.230;10.444;2024-03-02T04:22:57;7.50;99.90
12025;DHT22;6073;53.230;10.444;2024-03-02T04:25:22;7.40;99.90
12025;DHT22;6073;53.230;10.444;2024-03-02T04:27:48;7.50;99.90
12025;DHT22;6073;53.230;10.444;2024-03-02T04:30:14;7.50;99.90
12025;DHT22;6073;53.230;10.444;2024-03-02T04:32:40;7.40;99.90
12025;DHT22;6073;53.230;10.444;2024-03-02T04:35:06;7.40;99.90
12025;DHT22;6073;53.230;10.444;2024-03-02T04:37:35;7.40;99.90
12025;DHT22;6073;53.230;10.444;2024-03-02T04:40:01;7.50;99.90
12025;DHT22;6073;53.230;10.444;2024-03-02T04:42:26;7.50;99.90
12025;DHT22;6073;53.230;10.444;2024-03-02T04:44:51;7.60;99.90
12025;DHT22;6073;53.230;10.444;2024-03-02T04:47:17;7.60;99.90
12025;DHT22;6073;53.230;10.444;2024-03-02T04:49:43;7.60;99.90
12025;DHT22;6073;53.230;10.444;2024-03-02T04:52:09;7.50;99.90
12025;DHT22;6073;53.230;10.444;2024-03-02T04:54:34;7.50;99.90
12025;DHT22;6073;53.230;10.444;2024-03-02T04:57:20;7.50;99.90
12025;DHT22;6073;53.230;10.444;2024-03-02T04:59:45;7.60;99.90
12025;DHT22;6073;53.230;10.444;2024-03-02T05:02:11;7.60;99.90
12025;DHT22;6073;53.230;10.444;2024-03-02T05:04:39;7.60;99.90
12025;DHT22;6073;53.230;10.444;2024-03-02T05:07:05;7.60;99.90
12025;DHT22;6073;53.230;10.444;2024-03-02T05:09:30;7.60;99.90
12025;DHT22;6073;53.230;10.444;2024-03-02T05:11:56;7.60;99.90
12025;DHT22;6073;53.230;10.444;2024-03-02T05:14:37;7.50;99.90
12025;DHT22;6073;53.230;10.444;2024-03-02T05:17:03;7.50;99.90
12025;DHT22;6073;53.230;10.444;2024-03-02T05:19:29;7.50;99.90
12025;DHT22;6073;53.230;10.444;2024-03-02T05:21:54;7.40;99.90
12025;DHT22;6073;53.230;10.444;2024-03-02T05:24:20;7.40;99.90
12025;DHT22;6073;53.230;10.444;2024-03-02T05:26:45;7.30;99.90
12025;DHT22;6073;53.230;10.444;2024-03-02T05:29:11;7.40;99.90
12025;DHT22;6073;53.230;10.444;2024-03-02T05:31:37;7.30;99.90
12025;DHT22;6073;53.230;10.444;2024-03-02T05:34:03;7.20;99.90
12025;DHT22;6073;53.230;10.444;2024-03-02T05:36:28;7.20;99.90
12025;DHT22;6073;53.230;10.444;2024-03-02T05:38:54;7.20;99.90
12025;DHT22;6073;53.230;10.444;2024-03-02T05:41:19;7.30;99.90
12025;DHT22;6073;53.230;10.444;2024-03-02T05:43:45;7.30;99.90
12025;DHT22;6073;53.230;10.444;2024-03-02T05:46:10;7.30;99.90
12025;DHT22;6073;53.230;10.444;2024-03-02T05:48:37;7.30;99.90
12025;DHT22;6073;53.230;10.444;2024-03-02T05:51:02;7.30;99.90
12025;DHT22;6073;53.230;10.444;2024-03-02T05:53:28;7.30;99.90
12025;DHT22;6073;53.230;10.444;2024-03-02T05:55:54;7.40;99.90
12025;DHT22;6073;53.230;10.444;2024-03-02T05:58:21;7.30;99.90
12025;DHT22;6073;53.230;10.444;2024-03-02T06:00:49;7.20;99.90
12025;DHT22;6073;53.230;10.444;2024-03-02T06:03:15;7.20;99.90
12025;DHT22;6073;53.230;10.444;2024-03-02T06:05:40;7.10;99.90
12025;DHT22;6073;53.230;10.444;2024-03-02T06:08:06;7.20;99.90
12025;DHT22;6073;53.230;10.444;2024-03-02T06:10:32;7.20;99.90
12025;DHT22;6073;53.230;10.444;2024-03-02T06:12:58;7.30;99.90
12025;DHT22;6073;53.230;10.444;2024-03-02T06:15:24;7.20;99.90
12025;DHT22;6073;53.230;10.444;2024-03-02T06:17:50;7.20;99.90
12025;DHT22;6073;53.230;10.444;2024-03-02T06:20:15;7.30;99.90
12025;DHT22;6073;53.230;10.444;2024-03-02T06:22:41;7.30;99.90
12025;DHT22;6073;53.230;10.444;2024-03-02T06:25:06;7.20;99.90
12025;DHT22;6073;53.230;10.444;2024-03-02T06:27:32;7.20;99.90
12025;DHT22;6073;53.230;10.444;2024-03-02T06:29:58;7.20;99.90
12025;DHT22;6073;53.230;10.444;2024-03-02T06:32:23;7.30;99.90
12025;DHT22;6073;53.230;10.444;2024-03-02T06:34:50;7.30;99.90
12025;DHT22;6073;53.230;10.444;2024-03-02T06:37:15;7.30;99.90
12025;DHT22;6073;53.230;10.444;2024-03-02T06:39:41;7.40;99.90
12025;DHT22;6073;53.230;10.444;2024-03-02T06:42:07;7.40;99.90
12025;DHT22;6073;53.230;10.444;2024-03-02T06:44:32;7.40;99.90
12025;DHT22;6073;53.230;10.444;2024-03-02T06:46:58;7.40;99.90
12025;DHT22;6073;53.230;10.444;2024-03-02T06:49:23;7.50;99.90
12025;DHT22;6073;53.230;10.444;2024-03-02T06:51:49;7.50;99.90
12025;DHT22;6073;53.230;10.444;2024-03-02T06:54:15;7.60;99.90
12025;DHT22;6073;53.230;10.444;2024-03-02T06:56:40;7.60;99.90
12025;DHT22;6073;53.230;10.444;2024-03-02T06:59:06;7.60;99.90
12025;DHT22;6073;53.230;10.444;2024-03-02T07:01:32;7.60;99.90
12025;DHT22;6073;53.230;10.444;2024-03-02T07:03:58;7.70;99.90
12025;DHT22;6073;53.230;10.444;2024-03-02T07:06:23;7.80;99.90
12025;DHT22;6073;53.230;10.444;2024-03-02T07:08:49;7.80;99.90
12025;DHT22;6073;53.230;10.444;2024-03-02T07:11:14;7.80;99.90
12025;DHT22;6073;53.230;10.444;2024-03-02T07:13:40;7.80;99.90
12025;DHT22;6073;53.230;10.444;2024-03-02T07:16:05;7.80;99.90
12025;DHT22;6073;53.230;10.444;2024-03-02T07:18:49;7.90;99.90
12025;DHT22;6073;53.230;10.444;2024-03-02T07:21:17;7.90;99.90
12025;DHT22;6073;53.230;10.444;2024-03-02T07:23:42;8.00;99.90
12025;DHT22;6073;53.230;10.444;2024-03-02T07:26:08;8.00;99.90
12025;DHT22;6073;53.230;10.444;2024-03-02T07:28:33;8.10;99.90
12025;DHT22;6073;53.230;10.444;2024-03-02T07:31:00;8.20;99.90
12025;DHT22;6073;53.230;10.444;2024-03-02T07:33:26;8.30;99.90
12025;DHT22;6073;53.230;10.444;2024-03-02T07:35:52;8.30;99.90
12025;DHT22;6073;53.230;10.444;2024-03-02T07:38:17;8.30;99.90
12025;DHT22;6073;53.230;10.444;2024-03-02T07:40:43;8.40;99.90
12025;DHT22;6073;53.230;10.444;2024-03-02T07:43:09;8.40;99.90
12025;DHT22;6073;53.230;10.444;2024-03-02T07:45:35;8.50;99.90
12025;DHT22;6073;53.230;10.444;2024-03-02T07:48:03;8.40;99.90
12025;DHT22;6073;53.230;10.444;2024-03-02T07:50:29;8.50;99.90
12025;DHT22;6073;53.230;10.444;2024-03-02T07:52:55;8.60;99.90
12025;DHT22;6073;53.230;10.444;2024-03-02T07:55:21;8.70;99.90
12025;DHT22;6073;53.230;10.444;2024-03-02T07:57:46;8.70;99.90
12025;DHT22;6073;53.230;10.444;2024-03-02T08:00:12;8.90;99.90
12025;DHT22;6073;53.230;10.444;2024-03-02T08:02:40;9.00;99.90
12025;DHT22;6073;53.230;10.444;2024-03-02T08:05:06;9.10;99.90
12025;DHT22;6073;53.230;10.444;2024-03-02T08:07:31;9.10;99.90
12025;DHT22;6073;53.230;10.444;2024-03-02T08:09:57;9.30;99.90
12025;DHT22;6073;53.230;10.444;2024-03-02T08:12:22;9.60;99.90
12025;DHT22;6073;53.230;10.444;2024-03-02T08:14:48;9.80;99.90
12025;DHT22;6073;53.230;10.444;2024-03-02T08:17:14;10.10;99.90
12025;DHT22;6073;53.230;10.444;2024-03-02T08:19:40;10.40;99.90
12025;DHT22;6073;53.230;10.444;2024-03-02T08:22:05;10.40;99.90
12025;DHT22;6073;53.230;10.444;2024-03-02T08:24:32;10.60;99.90
12025;DHT22;6073;53.230;10.444;2024-03-02T08:26:59;10.80;99.90
12025;DHT22;6073;53.230;10.444;2024-03-02T08:29:25;11.00;99.90
12025;DHT22;6073;53.230;10.444;2024-03-02T08:31:50;11.30;99.90
12025;DHT22;6073;53.230;10.444;2024-03-02T08:34:16;11.30;99.90
12025;DHT22;6073;53.230;10.444;2024-03-02T08:36:41;11.40;99.90
12025;DHT22;6073;53.230;10.444;2024-03-02T08:39:08;11.70;99.90
12025;DHT22;6073;53.230;10.444;2024-03-02T08:41:44;12.00;99.90
12025;DHT22;6073;53.230;10.444;2024-03-02T08:44:09;12.10;99.90
12025;DHT22;6073;53.230;10.444;2024-03-02T08:46:35;12.20;99.90
12025;DHT22;6073;53.230;10.444;2024-03-02T08:49:01;12.80;99.90
12025;DHT22;6073;53.230;10.444;2024-03-02T08:51:27;13.20;99.90
12025;DHT22;6073;53.230;10.444;2024-03-02T08:53:52;12.80;99.90
12025;DHT22;6073;53.230;10.444;2024-03-02T08:56:18;13.10;99.90
12025;DHT22;6073;53.230;10.444;2024-03-02T08:58:45;13.00;99.90
12025;DHT22;6073;53.230;10.444;2024-03-02T09:01:11;12.90;99.90
12025;DHT22;6073;53.230;10.444;2024-03-02T09:03:37;12.80;99.90
12025;DHT22;6073;53.230;10.444;2024-03-02T09:06:03;12.80;99.90
12025;DHT22;6073;53.230;10.444;2024-03-02T09:08:28;13.30;99.90
12025;DHT22;6073;53.230;10.444;2024-03-02T09:10:55;13.90;99.90
12025;DHT22;6073;53.230;10.444;2024-03-02T09:13:21;14.20;99.90
12025;DHT22;6073;53.230;10.444;2024-03-02T09:15:47;14.50;99.90
12025;DHT22;6073;53.230;10.444;2024-03-02T09:18:13;14.60;99.90
12025;DHT22;6073;53.230;10.444;2024-03-02T09:20:39;14.90;99.90
12025;DHT22;6073;53.230;10.444;2024-03-02T09:23:04;14.90;99.90
12025;DHT22;6073;53.230;10.444;2024-03-02T09:25:30;14.60;99.90
12025;DHT22;6073;53.230;10.444;2024-03-02T09:27:55;14.30;99.90
12025;DHT22;6073;53.230;10.444;2024-03-02T09:30:21;14.30;99.90
12025;DHT22;6073;53.230;10.444;2024-03-02T09:32:47;14.00;99.90
12025;DHT22;6073;53.230;10.444;2024-03-02T09:35:13;13.70;99.90
12025;DHT22;6073;53.230;10.444;2024-03-02T09:37:38;13.90;99.90
12025;DHT22;6073;53.230;10.444;2024-03-02T09:40:04;13.80;99.90
12025;DHT22;6073;53.230;10.444;2024-03-02T09:42:31;13.80;99.90
12025;DHT22;6073;53.230;10.444;2024-03-02T09:44:57;13.90;99.90
12025;DHT22;6073;53.230;10.444;2024-03-02T09:47:23;13.70;99.90
12025;DHT22;6073;53.230;10.444;2024-03-02T09:49:49;13.50;99.90
12025;DHT22;6073;53.230;10.444;2024-03-02T09:52:15;13.30;99.90
12025;DHT22;6073;53.230;10.444;2024-03-02T09:54:41;13.30;99.90
12025;DHT22;6073;53.230;10.444;2024-03-02T09:57:07;13.10;99.90
12025;DHT22;6073;53.230;10.444;2024-03-02T10:02:08;13.00;99.90
12025;DHT22;6073;53.230;10.444;2024-03-02T10:04:34;13.10;99.90
12025;DHT22;6073;53.230;10.444;2024-03-02T10:07:17;13.00;99.90
12025;DHT22;6073;53.230;10.444;2024-03-02T10:09:50;12.90;99.90
12025;DHT22;6073;53.230;10.444;2024-03-02T10:12:17;12.90;99.90
12025;DHT22;6073;53.230;10.444;2024-03-02T10:14:43;13.00;99.90
12025;DHT22;6073;53.230;10.444;2024-03-02T10:17:11;13.00;99.90
12025;DHT22;6073;53.230;10.444;2024-03-02T10:19:38;13.00;99.90
12025;DHT22;6073;53.230;10.444;2024-03-02T10:22:08;13.10;99.90
12025;DHT22;6073;53.230;10.444;2024-03-02T10:24:39;13.10;99.90
12025;DHT22;6073;53.230;10.444;2024-03-02T10:27:19;13.20;99.90
12025;DHT22;6073;53.230;10.444;2024-03-02T10:29:48;13.10;99.90
12025;DHT22;6073;53.230;10.444;2024-03-02T10:32:15;13.10;99.90
12025;DHT22;6073;53.230;10.444;2024-03-02T10:34:42;13.20;99.90
12025;DHT22;6073;53.230;10.444;2024-03-02T10:37:08;13.10;99.90
12025;DHT22;6073;53.230;10.444;2024-03-02T10:39:35;13.10;99.90
12025;DHT22;6073;53.230;10.444;2024-03-02T10:42:02;13.10;99.90
12025;DHT22;6073;53.230;10.444;2024-03-02T10:44:29;13.30;99.90
12025;DHT22;6073;53.230;10.444;2024-03-02T10:46:56;13.40;99.90
12025;DHT22;6073;53.230;10.444;2024-03-02T10:49:23;13.40;99.90
12025;DHT22;6073;53.230;10.444;2024-03-02T10:51:49;13.40;99.90
12025;DHT22;6073;53.230;10.444;2024-03-02T10:54:14;13.60;99.90
12025;DHT22;6073;53.230;10.444;2024-03-02T10:56:41;13.70;99.90
12025;DHT22;6073;53.230;10.444;2024-03-02T10:59:31;13.70;99.90
12025;DHT22;6073;53.230;10.444;2024-03-02T11:01:59;13.90;99.90
12025;DHT22;6073;53.230;10.444;2024-03-02T11:04:27;13.90;99.90
12025;DHT22;6073;53.230;10.444;2024-03-02T11:07:09;14.00;99.90
12025;DHT22;6073;53.230;10.444;2024-03-02T11:09:38;14.10;99.90
12025;DHT22;6073;53.230;10.444;2024-03-02T11:14:53;13.80;99.90
12025;DHT22;6073;53.230;10.444;2024-03-02T11:17:21;13.80;99.90
12025;DHT22;6073;53.230;10.444;2024-03-02T11:19:47;13.60;99.90
12025;DHT22;6073;53.230;10.444;2024-03-02T11:22:13;13.70;99.90
12025;DHT22;6073;53.230;10.444;2024-03-02T11:24:50;13.80;99.90
12025;DHT22;6073;53.230;10.444;2024-03-02T11:33:12;13.90;99.90
12025;DHT22;6073;53.230;10.444;2024-03-02T11:35:40;14.00;99.90
12025;DHT22;6073;53.230;10.444;2024-03-02T11:38:09;14.00;99.90
12025;DHT22;6073;53.230;10.444;2024-03-02T11:40:35;14.00;99.90
12025;DHT22;6073;53.230;10.444;2024-03-02T11:43:00;13.90;99.90
12025;DHT22;6073;53.230;10.444;2024-03-02T11:45:27;13.90;99.90
12025;DHT22;6073;53.230;10.444;2024-03-02T11:47:58;13.90;99.90
12025;DHT22;6073;53.230;10.444;2024-03-02T11:50:34;13.90;99.90
12025;DHT22;6073;53.230;10.444;2024-03-02T11:53:03;13.70;99.90
12025;DHT22;6073;53.230;10.444;2024-03-02T11:55:32;13.70;99.90
12025;DHT22;6073;53.230;10.444;2024-03-02T11:58:01;13.60;99.90
12025;DHT22;6073;53.230;10.444;2024-03-02T12:00:27;13.70;99.90
12025;DHT22;6073;53.230;10.444;2024-03-02T12:05:30;13.80;99.90
12025;DHT22;6073;53.230;10.444;2024-03-02T12:08:00;13.60;99.90
12025;DHT22;6073;53.230;10.444;2024-03-02T12:10:27;13.60;99.90
12025;DHT22;6073;53.230;10.444;2024-03-02T12:12:59;13.40;99.90
12025;DHT22;6073;53.230;10.444;2024-03-02T12:15:26;13.40;99.90
12025;DHT22;6073;53.230;10.444;2024-03-02T12:17:56;13.40;99.90
12025;DHT22;6073;53.230;10.444;2024-03-02T12:20:23;13.40;99.90
12025;DHT22;6073;53.230;10.444;2024-03-02T12:22:51;13.50;99.90
12025;DHT22;6073;53.230;10.444;2024-03-02T12:25:18;13.50;99.90
12025;DHT22;6073;53.230;10.444;2024-03-02T12:27:44;13.50;99.90
12025;DHT22;6073;53.230;10.444;2024-03-02T12:30:11;13.60;99.90
12025;DHT22;6073;53.230;10.444;2024-03-02T12:32:39;13.50;99.90
12025;DHT22;6073;53.230;10.444;2024-03-02T12:35:05;13.40;99.90
12025;DHT22;6073;53.230;10.444;2024-03-02T12:37:31;13.50;99.90
12025;DHT22;6073;53.230;10.444;2024-03-02T12:39:57;13.50;99.90
12025;DHT22;6073;53.230;10.444;2024-03-02T12:42:24;13.50;99.90
12025;DHT22;6073;53.230;10.444;2024-03-02T12:44:52;13.50;99.90
12025;DHT22;6073;53.230;10.444;2024-03-02T12:47:20;13.60;99.90
12025;DHT22;6073;53.230;10.444;2024-03-02T12:49:45;13.70;99.90
12025;DHT22;6073;53.230;10.444;2024-03-02T12:52:13;13.80;99.90
12025;DHT22;6073;53.230;10.444;2024-03-02T12:54:38;13.80;99.90
12025;DHT22;6073;53.230;10.444;2024-03-02T12:57:04;13.90;99.90
12025;DHT22;6073;53.230;10.444;2024-03-02T12:59:30;13.90;99.90
12025;DHT22;6073;53.230;10.444;2024-03-02T13:01:56;13.90;99.90
12025;DHT22;6073;53.230;10.444;2024-03-02T13:04:28;13.90;99.90
12025;DHT22;6073;53.230;10.444;2024-03-02T13:06:55;13.90;99.90
12025;DHT22;6073;53.230;10.444;2024-03-02T13:09:23;14.00;99.90
12025;DHT22;6073;53.230;10.444;2024-03-02T13:11:49;13.90;99.90
12025;DHT22;6073;53.230;10.444;2024-03-02T13:14:14;14.00;99.90
12025;DHT22;6073;53.230;10.444;2024-03-02T13:16:44;14.00;99.90
12025;DHT22;6073;53.230;10.444;2024-03-02T13:19:11;14.00;99.90
12025;DHT22;6073;53.230;10.444;2024-03-02T13:21:37;14.00;99.90
12025;DHT22;6073;53.230;10.444;2024-03-02T13:24:04;13.80;99.90
12025;DHT22;6073;53.230;10.444;2024-03-02T13:26:30;13.80;99.90
12025;DHT22;6073;53.230;10.444;2024-03-02T13:28:56;13.90;99.90
12025;DHT22;6073;53.230;10.444;2024-03-02T13:31:21;13.90;99.90
12025;DHT22;6073;53.230;10.444;2024-03-02T13:33:47;13.90;99.90
12025;DHT22;6073;53.230;10.444;2024-03-02T13:36:13;13.90;99.90
12025;DHT22;6073;53.230;10.444;2024-03-02T13:38:38;13.80;99.90
12025;DHT22;6073;53.230;10.444;2024-03-02T13:41:04;13.80;99.90
12025;DHT22;6073;53.230;10.444;2024-03-02T13:43:30;13.80;99.90
12025;DHT22;6073;53.230;10.444;2024-03-02T13:46:02;13.80;99.90
12025;DHT22;6073;53.230;10.444;2024-03-02T13:48:28;13.70;99.90
12025;DHT22;6073;53.230;10.444;2024-03-02T13:50:53;13.70;99.90
12025;DHT22;6073;53.230;10.444;2024-03-02T13:53:19;13.70;99.90
12025;DHT22;6073;53.230;10.444;2024-03-02T13:59:31;13.60;99.90
12025;DHT22;6073;53.230;10.444;2024-03-02T14:05:16;13.50;99.90
12025;DHT22;6073;53.230;10.444;2024-03-02T14:08:04;13.50;99.90
12025;DHT22;6073;53.230;10.444;2024-03-02T14:10:44;13.40;99.90
12025;DHT22;6073;53.230;10.444;2024-03-02T14:13:20;13.40;99.90
12025;DHT22;6073;53.230;10.444;2024-03-02T14:15:46;13.50;99.90
12025;DHT22;6073;53.230;10.444;2024-03-02T14:18:12;13.40;99.90
12025;DHT22;6073;53.230;10.444;2024-03-02T14:21:13;13.40;99.90
12025;DHT22;6073;53.230;10.444;2024-03-02T14:23:56;13.30;99.90
12025;DHT22;6073;53.230;10.444;2024-03-02T14:26:22;13.20;99.90
12025;DHT22;6073;53.230;10.444;2024-03-02T14:28:47;13.30;99.90
12025;DHT22;6073;53.230;10.444;2024-03-02T14:31:13;13.30;99.90
12025;DHT22;6073;53.230;10.444;2024-03-02T14:33:38;13.30;99.90
12025;DHT22;6073;53.230;10.444;2024-03-02T14:36:05;13.30;99.90
12025;DHT22;6073;53.230;10.444;2024-03-02T14:38:30;13.40;99.90
12025;DHT22;6073;53.230;10.444;2024-03-02T14:40:56;13.30;99.90
12025;DHT22;6073;53.230;10.444;2024-03-02T14:43:22;13.20;99.90
12025;DHT22;6073;53.230;10.444;2024-03-02T14:45:48;13.20;99.90
12025;DHT22;6073;53.230;10.444;2024-03-02T14:48:13;13.20;99.90
12025;DHT22;6073;53.230;10.444;2024-03-02T14:50:39;13.30;99.90
12025;DHT22;6073;53.230;10.444;2024-03-02T14:53:05;13.30;99.90
12025;DHT22;6073;53.230;10.444;2024-03-02T14:55:33;13.30;99.90
12025;DHT22;6073;53.230;10.444;2024-03-02T14:57:59;13.30;99.90
12025;DHT22;6073;53.230;10.444;2024-03-02T15:00:25;13.30;99.90
12025;DHT22;6073;53.230;10.444;2024-03-02T15:02:50;13.30;99.90
12025;DHT22;6073;53.230;10.444;2024-03-02T15:05:16;13.30;99.90
12025;DHT22;6073;53.230;10.444;2024-03-02T15:07:43;13.30;99.90
12025;DHT22;6073;53.230;10.444;2024-03-02T15:10:08;13.40;99.90
12025;DHT22;6073;53.230;10.444;2024-03-02T15:12:34;13.50;99.90
12025;DHT22;6073;53.230;10.444;2024-03-02T15:15:00;13.60;99.90
12025;DHT22;6073;53.230;10.444;2024-03-02T15:17:25;13.60;99.90
12025;DHT22;6073;53.230;10.444;2024-03-02T15:19:51;13.70;99.90
12025;DHT22;6073;53.230;10.444;2024-03-02T15:22:17;13.70;99.90
12025;DHT22;6073;53.230;10.444;2024-03-02T15:24:42;13.80;99.90
12025;DHT22;6073;53.230;10.444;2024-03-02T15:27:08;13.80;99.90
12025;DHT22;6073;53.230;10.444;2024-03-02T15:29:35;13.80;99.90
12025;DHT22;6073;53.230;10.444;2024-03-02T15:32:01;13.70;99.90
12025;DHT22;6073;53.230;10.444;2024-03-02T15:34:28;13.80;99.90
12025;DHT22;6073;53.230;10.444;2024-03-02T15:36:54;13.80;99.90
12025;DHT22;6073;53.230;10.444;2024-03-02T15:39:20;13.70;99.90
12025;DHT22;6073;53.230;10.444;2024-03-02T15:41:45;13.70;99.90
12025;DHT22;6073;53.230;10.444;2024-03-02T15:44:11;13.60;99.90
12025;DHT22;6073;53.230;10.444;2024-03-02T15:46:37;13.60;99.90
12025;DHT22;6073;53.230;10.444;2024-03-02T15:49:03;13.60;99.90
12025;DHT22;6073;53.230;10.444;2024-03-02T15:51:31;13.50;99.90
12025;DHT22;6073;53.230;10.444;2024-03-02T15:53:56;13.50;99.90
12025;DHT22;6073;53.230;10.444;2024-03-02T15:56:23;13.40;99.90
12025;DHT22;6073;53.230;10.444;2024-03-02T15:58:48;13.30;99.90
12025;DHT22;6073;53.230;10.444;2024-03-02T16:01:14;13.30;99.90